sensor_id;sensor_type;location;lat;lon;timestamp;temperature;humidity
32322;DHT22;61553;48.994;8.940;2023-11-21T00:02:21;8.00;99.90
32322;DHT22;61553;48.994;8.940;2023-11-21T00:04:48;8.00;99.90
32322;DHT22;61553;48.994;8.940;2023-11-21T00:07:14;8.00;99.90
32322;DHT22;61553;48.994;8.940;2023-11-21T00:09:40;8.00;99.90
32322;DHT22;61553;48.994;8.940;2023-11-21T00:12:07;8.10;99.90
32322;DHT22;61553;48.994;8.940;2023-11-21T00:14:36;8.20;99.90
32322;DHT22;61553;48.994;8.940;2023-11-21T00:17:02;8.10;99.90
32322;DHT22;61553;48.994;8.940;2023-11-21T00:19:28;8.20;99.90
32322;DHT22;61553;48.994;8.940;2023-11-21T00:21:53;8.10;99.90
32322;DHT22;61553;48.994;8.940;2023-11-21T00:24:19;8.10;99.90
32322;DHT22;61553;48.994;8.940;2023-11-21T00:26:45;8.10;99.90
32322;DHT22;61553;48.994;8.940;2023-11-21T00:29:10;8.10;99.90
32322;DHT22;61553;48.994;8.940;2023-11-21T00:31:36;8.10;99.90
32322;DHT22;61553;48.994;8.940;2023-11-21T00:34:04;8.10;99.90
32322;DHT22;61553;48.994;8.940;2023-11-21T00:36:33;8.10;99.90
32322;DHT22;61553;48.994;8.940;2023-11-21T00:38:58;8.00;99.90
32322;DHT22;61553;48.994;8.940;2023-11-21T00:41:25;8.10;99.90
32322;DHT22;61553;48.994;8.940;2023-11-21T00:43:53;8.10;99.90
32322;DHT22;61553;48.994;8.940;2023-11-21T00:46:19;8.00;99.90
32322;DHT22;61553;48.994;8.940;2023-11-21T00:48:45;8.00;99.90
32322;DHT22;61553;48.994;8.940;2023-11-21T00:51:10;8.00;99.90
32322;DHT22;61553;48.994;8.940;2023-11-21T00:53:36;8.00;99.90
32322;DHT22;61553;48.994;8.940;2023-11-21T00:56:01;8.00;99.90
32322;DHT22;61553;48.994;8.940;2023-11-21T00:58:28;8.10;99.90
32322;DHT22;61553;48.994;8.940;2023-11-21T01:00:53;8.10;99.90
32322;DHT22;61553;48.994;8.940;2023-11-21T01:03:19;8.10;99.90
32322;DHT22;61553;48.994;8.940;2023-11-21T01:05:45;8.10;99.90
32322;DHT22;61553;48.994;8.940;2023-11-21T01:08:11;8.10;99.90
32322;DHT22;61553;48.994;8.940;2023-11-21T01:10:37;8.10;99.90
32322;DHT22;61553;48.994;8.940;2023-11-21T01:13:03;8.10;99.90
32322;DHT22;61553;48.994;8.940;2023-11-21T01:15:33;8.00;99.90
32322;DHT22;61553;48.994;8.940;2023-11-21T01:17:59;8.10;99.90
32322;DHT22;61553;48.994;8.940;2023-11-21T01:20:25;8.10;99.90
32322;DHT22;61553;48.994;8.940;2023-11-21T01:22:51;8.10;99.90
32322;DHT22;61553;48.994;8.940;2023-11-21T01:25:17;8.10;99.90
32322;DHT22;61553;48.994;8.940;2023-11-21T01:27:43;8.00;99.90
32322;DHT22;61553;48.994;8.940;2023-11-21T01:30:09;8.00;99.90
32322;DHT22;61553;48.994;8.940;2023-11-21T01:32:38;8.10;99.90
32322;DHT22;61553;48.994;8.940;2023-11-21T01:35:05;8.00;99.90
32322;DHT22;61553;48.994;8.940;2023-11-21T01:37:32;8.00;99.90
32322;DHT22;61553;48.994;8.940;2023-11-21T01:39:59;8.00;99.90
32322;DHT22;61553;48.994;8.940;2023-11-21T01:42:26;8.10;99.90
32322;DHT22;61553;48.994;8.940;2023-11-21T01:44:52;8.10;99.90
32322;DHT22;61553;48.994;8.940;2023-11-21T01:47:19;8.00;99.90
32322;DHT22;61553;48.994;8.940;2023-11-21T01:49:47;8.00;99.90
32322;DHT22;61553;48.994;8.940;2023-11-21T01:52:13;8.10;99.90
32322;DHT22;61553;48.994;8.940;2023-11-21T01:54:38;8.10;99.90
32322;DHT22;61553;48.994;8.940;2023-11-21T01:57:05;8.20;99.90
32322;DHT22;61553;48.994;8.940;2023-11-21T01:59:38;8.20;99.90
32322;DHT22;61553;48.994;8.940;2023-11-21T02:02:07;8.20;99.90
32322;DHT22;61553;48.994;8.940;2023-11-21T02:04:33;8.20;99.90
32322;DHT22;61553;48.994;8.940;2023-11-21T02:07:00;8.20;99.90
32322;DHT22;61553;48.994;8.940;2023-11-21T02:09:29;8.20;99.90
32322;DHT22;61553;48.994;8.940;2023-11-21T02:11:58;8.10;99.90
32322;DHT22;61553;48.994;8.940;2023-11-21T02:14:27;8.10;99.90
32322;DHT22;61553;48.994;8.940;2023-11-21T02:16:54;8.10;99.90
32322;DHT22;61553;48.994;8.940;2023-11-21T02:19:21;8.10;99.90
32322;DHT22;61553;48.994;8.940;2023-11-21T02:21:56;8.10;99.90
32322;DHT22;61553;48.994;8.940;2023-11-21T02:24:26;8.10;99.90
32322;DHT22;61553;48.994;8.940;2023-11-21T02:26:52;8.20;99.90
32322;DHT22;61553;48.994;8.940;2023-11-21T02:29:21;8.20;99.90
32322;DHT22;61553;48.994;8.940;2023-11-21T02:31:51;8.20;99.90
32322;DHT22;61553;48.994;8.940;2023-11-21T02:34:17;8.20;99.90
32322;DHT22;61553;48.994;8.940;2023-11-21T02:36:46;8.30;99.90
32322;DHT22;61553;48.994;8.940;2023-11-21T02:39:12;8.20;99.90
32322;DHT22;61553;48.994;8.940;2023-11-21T02:41:38;8.20;99.90
32322;DHT22;61553;48.994;8.940;2023-11-21T02:44:05;8.10;99.90
32322;DHT22;61553;48.994;8.940;2023-11-21T02:46:34;8.10;99.90
32322;DHT22;61553;48.994;8.940;2023-11-21T02:49:01;8.20;99.90
32322;DHT22;61553;48.994;8.940;2023-11-21T02:51:27;8.10;99.90
32322;DHT22;61553;48.994;8.940;2023-11-21T02:53:53;8.20;99.90
32322;DHT22;61553;48.994;8.940;2023-11-21T02:56:18;8.10;99.90
32322;DHT22;61553;48.994;8.940;2023-11-21T02:58:44;8.20;99.90
32322;DHT22;61553;48.994;8.940;2023-11-21T03:01:10;8.20;99.90
32322;DHT22;61553;48.994;8.940;2023-11-21T03:03:39;8.20;99.90
32322;DHT22;61553;48.994;8.940;2023-11-21T03:06:07;8.30;99.90
32322;DHT22;61553;48.994;8.940;2023-11-21T03:08:34;8.30;99.90
32322;DHT22;61553;48.994;8.940;2023-11-21T03:11:00;8.40;99.90
32322;DHT22;61553;48.994;8.940;2023-11-21T03:13:25;8.40;99.90
32322;DHT22;61553;48.994;8.940;2023-11-21T03:15:51;8.40;99.90
32322;DHT22;61553;48.994;8.940;2023-11-21T03:18:17;8.30;99.90
32322;DHT22;61553;48.994;8.940;2023-11-21T03:20:43;8.30;99.90
32322;DHT22;61553;48.994;8.940;2023-11-21T03:23:12;8.30;99.90
32322;DHT22;61553;48.994;8.940;2023-11-21T03:25:37;8.30;99.90
32322;DHT22;61553;48.994;8.940;2023-11-21T03:28:03;8.20;99.90
32322;DHT22;61553;48.994;8.940;2023-11-21T03:30:29;8.20;99.90
32322;DHT22;61553;48.994;8.940;2023-11-21T03:32:54;8.20;99.90
32322;DHT22;61553;48.994;8.940;2023-11-21T03:35:20;8.20;99.90
32322;DHT22;61553;48.994;8.940;2023-11-21T03:37:47;8.20;99.90
32322;DHT22;61553;48.994;8.940;2023-11-21T03:40:12;8.30;99.90
32322;DHT22;61553;48.994;8.940;2023-11-21T03:42:38;8.30;99.90
32322;DHT22;61553;48.994;8.940;2023-11-21T03:45:06;8.30;99.90
32322;DHT22;61553;48.994;8.940;2023-11-21T03:47:32;8.30;99.90
32322;DHT22;61553;48.994;8.940;2023-11-21T03:49:57;8.40;99.90
32322;DHT22;61553;48.994;8.940;2023-11-21T03:52:24;8.30;99.90
32322;DHT22;61553;48.994;8.940;2023-11-21T03:54:49;8.30;99.90
32322;DHT22;61553;48.994;8.940;2023-11-21T03:57:15;8.30;99.90
32322;DHT22;61553;48.994;8.940;2023-11-21T03:59:41;8.30;99.90
32322;DHT22;61553;48.994;8.940;2023-11-21T04:02:07;8.30;99.90
32322;DHT22;61553;48.994;8.940;2023-11-21T04:04:34;8.30;99.90
32322;DHT22;61553;48.994;8.940;2023-11-21T04:06:59;8.20;99.90
32322;DHT22;61553;48.994;8.940;2023-11-21T04:09:25;8.20;99.90
32322;DHT22;61553;48.994;8.940;2023-11-21T04:11:52;8.30;99.90
32322;DHT22;61553;48.994;8.940;2023-11-21T04:14:18;8.30;99.90
32322;DHT22;61553;48.994;8.940;2023-11-21T04:16:43;8.30;99.90
32322;DHT22;61553;48.994;8.940;2023-11-21T04:19:09;8.30;99.90
32322;DHT22;61553;48.994;8.940;2023-11-21T04:21:36;8.40;99.90
32322;DHT22;61553;48.994;8.940;2023-11-21T04:24:02;8.40;99.90
32322;DHT22;61553;48.994;8.940;2023-11-21T04:26:28;8.40;99.90
32322;DHT22;61553;48.994;8.940;2023-11-21T04:28:53;8.40;99.90
32322;DHT22;61553;48.994;8.940;2023-11-21T04:31:19;8.40;99.90
32322;DHT22;61553;48.994;8.940;2023-11-21T04:33:44;8.40;99.90
32322;DHT22;61553;48.994;8.940;2023-11-21T04:36:10;8.40;99.90
32322;DHT22;61553;48.994;8.940;2023-11-21T04:38:36;8.50;99.90
32322;DHT22;61553;48.994;8.940;2023-11-21T04:41:01;8.40;99.90
32322;DHT22;61553;48.994;8.940;2023-11-21T04:43:27;8.40;99.90
32322;DHT22;61553;48.994;8.940;2023-11-21T04:45:54;8.50;99.90
32322;DHT22;61553;48.994;8.940;2023-11-21T04:48:20;8.40;99.90
32322;DHT22;61553;48.994;8.940;2023-11-21T04:50:45;8.40;99.90
32322;DHT22;61553;48.994;8.940;2023-11-21T04:53:11;8.40;99.90
32322;DHT22;61553;48.994;8.940;2023-11-21T04:55:40;8.40;99.90
32322;DHT22;61553;48.994;8.940;2023-11-21T04:58:06;8.40;99.90
32322;DHT22;61553;48.994;8.940;2023-11-21T05:00:31;8.40;99.90
32322;DHT22;61553;48.994;8.940;2023-11-21T05:02:57;8.40;99.90
32322;DHT22;61553;48.994;8.940;2023-11-21T05:05:23;8.40;99.90
32322;DHT22;61553;48.994;8.940;2023-11-21T05:07:49;8.40;99.90
32322;DHT22;61553;48.994;8.940;2023-11-21T05:10:15;8.40;99.90
32322;DHT22;61553;48.994;8.940;2023-11-21T05:12:43;8.40;99.90
32322;DHT22;61553;48.994;8.940;2023-11-21T05:15:09;8.40;99.90
32322;DHT22;61553;48.994;8.940;2023-11-21T05:17:38;8.40;99.90
32322;DHT22;61553;48.994;8.940;2023-11-21T05:20:08;8.50;99.90
32322;DHT22;61553;48.994;8.940;2023-11-21T05:22:35;8.50;99.90
32322;DHT22;61553;48.994;8.940;2023-11-21T05:25:02;8.50;99.90
32322;DHT22;61553;48.994;8.940;2023-11-21T05:27:29;8.50;99.90
32322;DHT22;61553;48.994;8.940;2023-11-21T05:29:56;8.50;99.90
32322;DHT22;61553;48.994;8.940;2023-11-21T05:32:22;8.40;99.90
32322;DHT22;61553;48.994;8.940;2023-11-21T05:34:49;8.40;99.90
32322;DHT22;61553;48.994;8.940;2023-11-21T05:37:14;8.40;99.90
32322;DHT22;61553;48.994;8.940;2023-11-21T05:39:40;8.40;99.90
32322;DHT22;61553;48.994;8.940;2023-11-21T05:42:06;8.40;99.90
32322;DHT22;61553;48.994;8.940;2023-11-21T05:44:31;8.40;99.90
32322;DHT22;61553;48.994;8.940;2023-11-21T05:46:57;8.40;99.90
32322;DHT22;61553;48.994;8.940;2023-11-21T05:49:24;8.40;99.90
32322;DHT22;61553;48.994;8.940;2023-11-21T05:51:55;8.40;99.90
32322;DHT22;61553;48.994;8.940;2023-11-21T05:54:21;8.40;99.90
32322;DHT22;61553;48.994;8.940;2023-11-21T05:56:47;8.40;99.90
32322;DHT22;61553;48.994;8.940;2023-11-21T05:59:13;8.40;99.90
32322;DHT22;61553;48.994;8.940;2023-11-21T06:01:38;8.50;99.90
32322;DHT22;61553;48.994;8.940;2023-11-21T06:04:05;8.50;99.90
32322;DHT22;61553;48.994;8.940;2023-11-21T06:06:31;8.50;99.90
32322;DHT22;61553;48.994;8.940;2023-11-21T06:08:57;8.50;99.90
32322;DHT22;61553;48.994;8.940;2023-11-21T06:11:22;8.50;99.90
32322;DHT22;61553;48.994;8.940;2023-11-21T06:13:49;8.50;99.90
32322;DHT22;61553;48.994;8.940;2023-11-21T06:16:15;8.60;99.90
32322;DHT22;61553;48.994;8.940;2023-11-21T06:18:44;8.40;99.90
32322;DHT22;61553;48.994;8.940;2023-11-21T06:21:10;8.40;99.90
32322;DHT22;61553;48.994;8.940;2023-11-21T06:23:36;8.40;99.90
32322;DHT22;61553;48.994;8.940;2023-11-21T06:26:01;8.40;99.90
32322;DHT22;61553;48.994;8.940;2023-11-21T06:28:27;8.30;99.90
32322;DHT22;61553;48.994;8.940;2023-11-21T06:30:53;8.30;99.90
32322;DHT22;61553;48.994;8.940;2023-11-21T06:33:19;8.40;99.90
32322;DHT22;61553;48.994;8.940;2023-11-21T06:35:44;8.40;99.90
32322;DHT22;61553;48.994;8.940;2023-11-21T06:38:10;8.40;99.90
32322;DHT22;61553;48.994;8.940;2023-11-21T06:40:36;8.40;99.90
32322;DHT22;61553;48.994;8.940;2023-11-21T06:43:02;8.40;99.90
32322;DHT22;61553;48.994;8.940;2023-11-21T06:45:27;8.40;99.90
32322;DHT22;61553;48.994;8.940;2023-11-21T06:47:53;8.50;99.90
32322;DHT22;61553;48.994;8.940;2023-11-21T06:50:18;8.50;99.90
32322;DHT22;61553;48.994;8.940;2023-11-21T06:52:44;8.50;99.90
32322;DHT22;61553;48.994;8.940;2023-11-21T06:55:10;8.50;99.90
32322;DHT22;61553;48.994;8.940;2023-11-21T06:57:36;8.50;99.90
32322;DHT22;61553;48.994;8.940;2023-11-21T07:00:02;8.50;99.90
32322;DHT22;61553;48.994;8.940;2023-11-21T07:02:28;8.50;99.90
32322;DHT22;61553;48.994;8.940;2023-11-21T07:04:54;8.50;99.90
32322;DHT22;61553;48.994;8.940;2023-11-21T07:07:20;8.60;99.90
32322;DHT22;61553;48.994;8.940;2023-11-21T07:09:45;8.60;99.90
32322;DHT22;61553;48.994;8.940;2023-11-21T07:12:11;8.60;99.90
32322;DHT22;61553;48.994;8.940;2023-11-21T07:14:37;8.60;99.90
32322;DHT22;61553;48.994;8.940;2023-11-21T07:17:04;8.60;99.90
32322;DHT22;61553;48.994;8.940;2023-11-21T07:19:30;8.70;99.90
32322;DHT22;61553;48.994;8.940;2023-11-21T07:21:56;8.70;99.90
32322;DHT22;61553;48.994;8.940;2023-11-21T07:24:21;8.70;99.90
32322;DHT22;61553;48.994;8.940;2023-11-21T07:26:48;8.70;99.90
32322;DHT22;61553;48.994;8.940;2023-11-21T07:29:14;8.70;99.90
32322;DHT22;61553;48.994;8.940;2023-11-21T07:31:40;8.60;99.90
32322;DHT22;61553;48.994;8.940;2023-11-21T07:34:06;8.70;99.90
32322;DHT22;61553;48.994;8.940;2023-11-21T07:36:33;8.70;99.90
32322;DHT22;61553;48.994;8.940;2023-11-21T07:38:59;8.70;99.90
32322;DHT22;61553;48.994;8.940;2023-11-21T07:41:25;8.70;99.90
32322;DHT22;61553;48.994;8.940;2023-11-21T07:43:51;8.70;99.90
32322;DHT22;61553;48.994;8.940;2023-11-21T07:46:17;8.70;99.90
32322;DHT22;61553;48.994;8.940;2023-11-21T07:48:43;8.70;99.90
32322;DHT22;61553;48.994;8.940;2023-11-21T07:51:09;8.80;99.90
32322;DHT22;61553;48.994;8.940;2023-11-21T07:53:35;8.80;99.90
32322;DHT22;61553;48.994;8.940;2023-11-21T07:56:05;8.80;99.90
32322;DHT22;61553;48.994;8.940;2023-11-21T07:58:31;8.90;99.90
32322;DHT22;61553;48.994;8.940;2023-11-21T08:00:59;8.90;99.90
32322;DHT22;61553;48.994;8.940;2023-11-21T08:03:25;8.90;99.90
32322;DHT22;61553;48.994;8.940;2023-11-21T08:05:52;8.90;99.90
32322;DHT22;61553;48.994;8.940;2023-11-21T08:08:18;8.90;99.90
32322;DHT22;61553;48.994;8.940;2023-11-21T08:10:44;9.00;99.90
32322;DHT22;61553;48.994;8.940;2023-11-21T08:13:24;8.90;99.90
32322;DHT22;61553;48.994;8.940;2023-11-21T08:15:50;8.90;99.90
32322;DHT22;61553;48.994;8.940;2023-11-21T08:18:16;9.00;99.90
32322;DHT22;61553;48.994;8.940;2023-11-21T08:20:43;9.00;99.90
32322;DHT22;61553;48.994;8.940;2023-11-21T08:23:14;9.00;99.90
32322;DHT22;61553;48.994;8.940;2023-11-21T08:25:41;9.00;99.90
32322;DHT22;61553;48.994;8.940;2023-11-21T08:28:07;9.10;99.90
32322;DHT22;61553;48.994;8.940;2023-11-21T08:30:33;9.10;99.90
32322;DHT22;61553;48.994;8.940;2023-11-21T08:33:00;9.10;99.90
32322;DHT22;61553;48.994;8.940;2023-11-21T08:35:25;9.20;99.90
32322;DHT22;61553;48.994;8.940;2023-11-21T08:37:52;9.10;99.90
32322;DHT22;61553;48.994;8.940;2023-11-21T08:40:21;9.10;99.90
32322;DHT22;61553;48.994;8.940;2023-11-21T08:42:47;9.20;99.90
32322;DHT22;61553;48.994;8.940;2023-11-21T08:45:14;9.20;99.90
32322;DHT22;61553;48.994;8.940;2023-11-21T08:47:40;9.30;99.90
32322;DHT22;61553;48.994;8.940;2023-11-21T08:50:06;9.30;99.90
32322;DHT22;61553;48.994;8.940;2023-11-21T08:52:33;9.30;99.90
32322;DHT22;61553;48.994;8.940;2023-11-21T08:54:59;9.40;99.90
32322;DHT22;61553;48.994;8.940;2023-11-21T08:57:28;9.50;99.90
32322;DHT22;61553;48.994;8.940;2023-11-21T08:59:55;9.70;99.90
32322;DHT22;61553;48.994;8.940;2023-11-21T09:02:26;9.90;99.90
32322;DHT22;61553;48.994;8.940;2023-11-21T09:04:52;10.00;99.90
32322;DHT22;61553;48.994;8.940;2023-11-21T09:07:19;10.20;99.90
32322;DHT22;61553;48.994;8.940;2023-11-21T09:09:46;10.30;99.90
32322;DHT22;61553;48.994;8.940;2023-11-21T09:12:13;10.40;99.90
32322;DHT22;61553;48.994;8.940;2023-11-21T09:14:38;10.50;99.90
32322;DHT22;61553;48.994;8.940;2023-11-21T09:17:05;10.50;99.90
32322;DHT22;61553;48.994;8.940;2023-11-21T09:19:39;10.60;99.90
32322;DHT22;61553;48.994;8.940;2023-11-21T09:22:05;10.70;99.90
32322;DHT22;61553;48.994;8.940;2023-11-21T09:24:32;10.70;99.90
32322;DHT22;61553;48.994;8.940;2023-11-21T09:26:58;10.80;99.90
32322;DHT22;61553;48.994;8.940;2023-11-21T09:29:23;11.00;99.90
32322;DHT22;61553;48.994;8.940;2023-11-21T09:31:49;11.20;99.90
32322;DHT22;61553;48.994;8.940;2023-11-21T09:34:17;11.20;99.90
32322;DHT22;61553;48.994;8.940;2023-11-21T09:36:47;11.30;99.90
32322;DHT22;61553;48.994;8.940;2023-11-21T09:39:13;11.40;99.90
32322;DHT22;61553;48.994;8.940;2023-11-21T09:41:50;11.50;99.90
32322;DHT22;61553;48.994;8.940;2023-11-21T09:44:26;11.60;99.90
32322;DHT22;61553;48.994;8.940;2023-11-21T09:46:58;11.60;99.90
32322;DHT22;61553;48.994;8.940;2023-11-21T09:49:25;11.50;99.90
32322;DHT22;61553;48.994;8.940;2023-11-21T09:51:54;11.50;99.90
32322;DHT22;61553;48.994;8.940;2023-11-21T09:54:21;11.50;99.90
32322;DHT22;61553;48.994;8.940;2023-11-21T09:56:47;11.30;99.90
32322;DHT22;61553;48.994;8.940;2023-11-21T09:59:15;11.30;99.90
32322;DHT22;61553;48.994;8.940;2023-11-21T10:01:42;11.40;99.90
32322;DHT22;61553;48.994;8.940;2023-11-21T10:04:08;11.50;99.90
32322;DHT22;61553;48.994;8.940;2023-11-21T10:06:40;11.60;99.90
32322;DHT22;61553;48.994;8.940;2023-11-21T10:09:09;11.60;99.90
32322;DHT22;61553;48.994;8.940;2023-11-21T10:11:40;11.50;99.90
32322;DHT22;61553;48.994;8.940;2023-11-21T10:14:08;11.30;99.90
32322;DHT22;61553;48.994;8.940;2023-11-21T10:16:36;11.20;99.90
32322;DHT22;61553;48.994;8.940;2023-11-21T10:19:04;11.00;99.90
32322;DHT22;61553;48.994;8.940;2023-11-21T10:21:32;10.80;99.90
32322;DHT22;61553;48.994;8.940;2023-11-21T10:23:58;10.80;99.90
32322;DHT22;61553;48.994;8.940;2023-11-21T10:26:26;10.80;99.90
32322;DHT22;61553;48.994;8.940;2023-11-21T10:29:00;10.80;99.90
32322;DHT22;61553;48.994;8.940;2023-11-21T10:31:33;10.80;99.90
32322;DHT22;61553;48.994;8.940;2023-11-21T10:34:18;10.90;99.90
32322;DHT22;61553;48.994;8.940;2023-11-21T10:36:44;11.00;99.90
32322;DHT22;61553;48.994;8.940;2023-11-21T10:39:16;11.20;99.90
32322;DHT22;61553;48.994;8.940;2023-11-21T10:41:43;11.30;99.90
32322;DHT22;61553;48.994;8.940;2023-11-21T10:44:10;11.50;99.90
32322;DHT22;61553;48.994;8.940;2023-11-21T10:46:36;11.70;99.90
32322;DHT22;61553;48.994;8.940;2023-11-21T10:49:04;11.80;99.90
32322;DHT22;61553;48.994;8.940;2023-11-21T10:51:29;11.80;99.90
32322;DHT22;61553;48.994;8.940;2023-11-21T10:53:55;11.90;99.90
32322;DHT22;61553;48.994;8.940;2023-11-21T10:56:23;12.10;99.90
32322;DHT22;61553;48.994;8.940;2023-11-21T10:58:50;12.30;99.90
32322;DHT22;61553;48.994;8.940;2023-11-21T11:01:18;12.30;99.90
32322;DHT22;61553;48.994;8.940;2023-11-21T11:03:47;12.60;99.90
32322;DHT22;61553;48.994;8.940;2023-11-21T11:06:14;12.70;99.90
32322;DHT22;61553;48.994;8.940;2023-11-21T11:08:40;12.90;99.90
32322;DHT22;61553;48.994;8.940;2023-11-21T11:11:07;13.10;99.90
32322;DHT22;61553;48.994;8.940;2023-11-21T11:13:33;13.10;99.90
32322;DHT22;61553;48.994;8.940;2023-11-21T11:16:00;13.10;99.90
32322;DHT22;61553;48.994;8.940;2023-11-21T11:18:30;12.80;99.90
32322;DHT22;61553;48.994;8.940;2023-11-21T11:21:27;12.60;99.90
32322;DHT22;61553;48.994;8.940;2023-11-21T11:24:13;12.40;99.90
32322;DHT22;61553;48.994;8.940;2023-11-21T11:26:55;12.30;99.90
32322;DHT22;61553;48.994;8.940;2023-11-21T11:29:48;12.20;99.90
32322;DHT22;61553;48.994;8.940;2023-11-21T11:32:36;12.10;99.90
32322;DHT22;61553;48.994;8.940;2023-11-21T11:35:25;12.10;99.90
32322;DHT22;61553;48.994;8.940;2023-11-21T11:37:53;12.10;99.90
32322;DHT22;61553;48.994;8.940;2023-11-21T11:40:19;12.10;99.90
32322;DHT22;61553;48.994;8.940;2023-11-21T11:43:01;12.30;99.90
32322;DHT22;61553;48.994;8.940;2023-11-21T11:45:34;12.20;99.90
32322;DHT22;61553;48.994;8.940;2023-11-21T11:48:01;12.30;99.90
32322;DHT22;61553;48.994;8.940;2023-11-21T11:50:29;12.20;99.90
32322;DHT22;61553;48.994;8.940;2023-11-21T11:52:55;12.20;99.90
32322;DHT22;61553;48.994;8.940;2023-11-21T11:55:23;12.20;99.90
32322;DHT22;61553;48.994;8.940;2023-11-21T11:57:53;12.10;99.90
32322;DHT22;61553;48.994;8.940;2023-11-21T12:03:01;11.90;99.90
32322;DHT22;61553;48.994;8.940;2023-11-21T12:05:29;11.70;99.90
32322;DHT22;61553;48.994;8.940;2023-11-21T12:08:00;11.60;99.90
32322;DHT22;61553;48.994;8.940;2023-11-21T12:10:28;11.60;99.90
32322;DHT22;61553;48.994;8.940;2023-11-21T12:12:56;11.60;99.90
32322;DHT22;61553;48.994;8.940;2023-11-21T12:15:22;11.60;99.90
32322;DHT22;61553;48.994;8.940;2023-11-21T12:17:49;11.60;99.90
32322;DHT22;61553;48.994;8.940;2023-11-21T12:20:18;11.60;99.90
32322;DHT22;61553;48.994;8.940;2023-11-21T12:22:44;11.50;99.90
32322;DHT22;61553;48.994;8.940;2023-11-21T12:25:10;11.50;99.90
32322;DHT22;61553;48.994;8.940;2023-11-21T12:27:44;11.50;99.90
32322;DHT22;61553;48.994;8.940;2023-11-21T12:30:11;11.50;99.90
32322;DHT22;61553;48.994;8.940;2023-11-21T12:32:41;11.50;99.90
32322;DHT22;61553;48.994;8.940;2023-11-21T12:35:11;11.40;99.90
32322;DHT22;61553;48.994;8.940;2023-11-21T12:37:41;11.50;99.90
32322;DHT22;61553;48.994;8.940;2023-11-21T12:40:10;11.30;99.90
32322;DHT22;61553;48.994;8.940;2023-11-21T12:42:41;11.30;99.90
32322;DHT22;61553;48.994;8.940;2023-11-21T12:47:53;11.50;99.90
32322;DHT22;61553;48.994;8.940;2023-11-21T12:50:24;11.40;99.90
32322;DHT22;61553;48.994;8.940;2023-11-21T12:52:58;11.40;99.90
32322;DHT22;61553;48.994;8.940;2023-11-21T12:55:24;11.50;99.90
32322;DHT22;61553;48.994;8.940;2023-11-21T12:57:52;11.50;99.90
32322;DHT22;61553;48.994;8.940;2023-11-21T13:00:31;11.60;99.90
32322;DHT22;61553;48.994;8.940;2023-11-21T13:02:59;11.70;99.90
32322;DHT22;61553;48.994;8.940;2023-11-21T13:05:30;11.60;99.90
32322;DHT22;61553;48.994;8.940;2023-11-21T13:07:58;11.60;99.90
32322;DHT22;61553;48.994;8.940;2023-11-21T13:10:25;11.70;99.90
32322;DHT22;61553;48.994;8.940;2023-11-21T13:12:55;11.70;99.90
32322;DHT22;61553;48.994;8.940;2023-11-21T13:15:24;11.80;99.90
32322;DHT22;61553;48.994;8.940;2023-11-21T13:17:50;11.90;99.90
32322;DHT22;61553;48.994;8.940;2023-11-21T13:20:17;12.00;99.90
32322;DHT22;61553;48.994;8.940;2023-11-21T13:22:53;12.00;99.90
32322;DHT22;61553;48.994;8.940;2023-11-21T13:25:29;12.10;99.90
32322;DHT22;61553;48.994;8.940;2023-11-21T13:27:55;12.00;99.90
32322;DHT22;61553;48.994;8.940;2023-11-21T13:30:21;12.00;99.90
32322;DHT22;61553;48.994;8.940;2023-11-21T13:32:53;11.80;99.90
32322;DHT22;61553;48.994;8.940;2023-11-21T13:35:23;11.70;99.90
32322;DHT22;61553;48.994;8.940;2023-11-21T13:38:03;11.60;99.90
32322;DHT22;61553;48.994;8.940;2023-11-21T13:40:30;11.40;99.90
32322;DHT22;61553;48.994;8.940;2023-11-21T13:42:56;11.30;99.90
32322;DHT22;61553;48.994;8.940;2023-11-21T13:45:25;11.20;99.90
32322;DHT22;61553;48.994;8.940;2023-11-21T13:47:53;11.10;99.90
32322;DHT22;61553;48.994;8.940;2023-11-21T13:50:26;10.80;99.90
32322;DHT22;61553;48.994;8.940;2023-11-21T13:53:01;10.70;99.90
32322;DHT22;61553;48.994;8.940;2023-11-21T13:55:51;10.60;99.90
32322;DHT22;61553;48.994;8.940;2023-11-21T13:58:20;10.50;99.90
32322;DHT22;61553;48.994;8.940;2023-11-21T14:00:50;10.40;99.90
32322;DHT22;61553;48.994;8.940;2023-11-21T14:03:25;10.40;99.90
32322;DHT22;61553;48.994;8.940;2023-11-21T14:06:03;10.30;99.90
32322;DHT22;61553;48.994;8.940;2023-11-21T14:08:39;10.20;99.90
32322;DHT22;61553;48.994;8.940;2023-11-21T14:11:05;10.10;99.90
32322;DHT22;61553;48.994;8.940;2023-11-21T14:13:32;10.20;99.90
32322;DHT22;61553;48.994;8.940;2023-11-21T14:15:58;10.10;99.90
32322;DHT22;61553;48.994;8.940;2023-11-21T14:18:27;10.10;99.90
32322;DHT22;61553;48.994;8.940;2023-11-21T14:20:59;10.00;99.90
32322;DHT22;61553;48.994;8.940;2023-11-21T14:23:25;10.10;99.90
32322;DHT22;61553;48.994;8.940;2023-11-21T14:25:51;10.00;99.90
32322;DHT22;61553;48.994;8.940;2023-11-21T14:28:17;10.10;99.90
32322;DHT22;61553;48.994;8.940;2023-11-21T14:30:45;10.20;99.90
32322;DHT22;61553;48.994;8.940;2023-11-21T14:33:12;10.10;99.90
32322;DHT22;61553;48.994;8.940;2023-11-21T14:35:37;10.10;99.90
32322;DHT22;61553;48.994;8.940;2023-11-21T14:38:03;10.00;99.90
32322;DHT22;61553;48.994;8.940;2023-11-21T14:40:31;10.10;99.90
32322;DHT22;61553;48.994;8.940;2023-11-21T14:43:02;10.00;99.90
32322;DHT22;61553;48.994;8.940;2023-11-21T14:45:31;10.00;99.90
32322;DHT22;61553;48.994;8.940;2023-11-21T14:47:57;10.00;99.90
32322;DHT22;61553;48.994;8.940;2023-11-21T14:50:35;9.90;99.90
32322;DHT22;61553;48.994;8.940;2023-11-21T14:53:03;9.90;99.90
32322;DHT22;61553;48.994;8.940;2023-11-21T14:55:32;9.90;99.90
32322;DHT22;61553;48.994;8.940;2023-11-21T14:58:05;9.90;99.90
32322;DHT22;61553;48.994;8.940;2023-11-21T15:00:31;9.90;99.90
32322;DHT22;61553;48.994;8.940;2023-11-21T15:03:09;9.90;99.90
32322;DHT22;61553;48.994;8.940;2023-11-21T15:05:35;9.80;99.90
32322;DHT22;61553;48.994;8.940;2023-11-21T15:08:01;9.80;99.90
32322;DHT22;61553;48.994;8.940;2023-11-21T15:10:45;9.80;99.90
32322;DHT22;61553;48.994;8.940;2023-11-21T15:13:13;9.70;99.90
32322;DHT22;61553;48.994;8.940;2023-11-21T15:15:41;9.60;99.90
32322;DHT22;61553;48.994;8.940;2023-11-21T15:18:07;9.50;99.90
32322;DHT22;61553;48.994;8.940;2023-11-21T15:20:33;9.40;99.90
32322;DHT22;61553;48.994;8.940;2023-11-21T15:22:59;9.20;99.90
32322;DHT22;61553;48.994;8.940;2023-11-21T15:25:25;9.10;99.90
32322;DHT22;61553;48.994;8.940;2023-11-21T15:27:51;8.90;99.90
32322;DHT22;61553;48.994;8.940;2023-11-21T15:30:16;8.90;99.90
32322;DHT22;61553;48.994;8.940;2023-11-21T15:32:50;8.80;99.90
32322;DHT22;61553;48.994;8.940;2023-11-21T15:35:16;8.70;99.90
32322;DHT22;61553;48.994;8.940;2023-11-21T15:37:42;8.50;99.90
32322;DHT22;61553;48.994;8.940;2023-11-21T15:40:09;8.50;99.90
32322;DHT22;61553;48.994;8.940;2023-11-21T15:42:35;8.30;99.90
32322;DHT22;61553;48.994;8.940;2023-11-21T15:45:03;8.10;99.90
32322;DHT22;61553;48.994;8.940;2023-11-21T15:47:32;8.00;99.90
32322;DHT22;61553;48.994;8.940;2023-11-21T15:49:58;7.90;99.90